Time;durP1;ratioP1;P1;durP2;ratioP2;P2;SDS_P1;SDS_P2;PMS_P1;PMS_P2;Temp;Humidity;BMP_temperature;BMP_pressure;BME280_temperature;BME280_humidity;BME280_pressure;Samples;Min_cycle;Max_cycle;Signal;HPM_P1;HPM_P2
2022/09/02 00:02:04;;;;;;;7.95;2.53;;;;;;;;;;7334958;19;162427;-16
2022/09/02 00:04:35;;;;;;;8.77;2.72;;;;;;;;;;7335102;19;154219;-16
2022/09/02 00:07:06;;;;;;;11.63;2.72;;;;;;;;;;7335038;19;153834;-15
2022/09/02 00:09:39;;;;;;;3.85;2.42;;;;;;;;;;7334640;19;161870;-15
2022/09/02 00:12:11;;;;;;;5.28;3.03;;;;;;;;;;7335048;19;162662;-15
2022/09/02 00:14:48;;;;;;;10.60;2.77;;;;;;;;;;7338248;19;154033;-15
2022/09/02 00:17:19;;;;;;;9.00;3.22;;;;;;;;;;7338132;19;153553;-15
2022/09/02 00:19:50;;;;;;;5.90;3.13;;;;;;;;;;7335070;19;161855;-16
2022/09/02 00:22:25;;;;;;;6.32;2.47;;;;;;;;;;7336079;19;162620;-15
2022/09/02 00:24:56;;;;;;;6.28;2.53;;;;;;;;;;7337029;19;154226;-15
2022/09/02 00:27:27;;;;;;;4.72;2.70;;;;;;;;;;7337432;19;153582;-15
2022/09/02 00:30:01;;;;;;;6.18;2.70;;;;;;;;;;7335954;19;162303;-15
2022/09/02 00:32:32;;;;;;;3.13;2.58;;;;;;;;;;7336131;19;162656;-15
2022/09/02 00:35:04;;;;;;;7.70;2.88;;;;;;;;;;7337657;19;154552;-15
2022/09/02 00:37:36;;;;;;;4.88;2.03;;;;;;;;;;7336140;19;153520;-15
2022/09/02 00:40:10;;;;;;;5.43;2.65;;;;;;;;;;7335643;19;162062;-15
2022/09/02 00:42:42;;;;;;;6.38;2.47;;;;;;;;;;7337082;19;162516;-15
2022/09/02 00:45:17;;;;;;;5.85;2.78;;;;;;;;;;7337153;19;154403;-16
2022/09/02 00:47:49;;;;;;;3.40;2.20;;;;;;;;;;7336921;19;153643;-16
2022/09/02 00:50:24;;;;;;;6.18;2.65;;;;;;;;;;7334981;19;161929;-16
2022/09/02 00:52:59;;;;;;;12.90;2.65;;;;;;;;;;7337256;19;162316;-16
2022/09/02 00:55:33;;;;;;;4.22;2.35;;;;;;;;;;7336762;19;154039;-16
2022/09/02 00:58:07;;;;;;;4.80;2.30;;;;;;;;;;7334617;19;153547;-16
2022/09/02 01:00:44;;;;;;;5.78;2.40;;;;;;;;;;7335025;19;162031;-15
2022/09/02 01:03:20;;;;;;;4.78;2.30;;;;;;;;;;7335810;19;162404;-16
2022/09/02 01:05:53;;;;;;;4.45;2.53;;;;;;;;;;7333826;19;154122;-16
2022/09/02 01:08:28;;;;;;;4.78;2.40;;;;;;;;;;7336798;19;153717;-15
2022/09/02 01:11:00;;;;;;;4.85;2.28;;;;;;;;;;7336235;19;161912;-16
2022/09/02 01:13:33;;;;;;;5.47;2.63;;;;;;;;;;7335738;19;162383;-16
2022/09/02 01:16:13;;;;;;;4.05;2.40;;;;;;;;;;7332002;19;154129;-16
2022/09/02 01:18:49;;;;;;;6.90;2.47;;;;;;;;;;7333018;19;153718;-16
2022/09/02 01:21:20;;;;;;;3.42;2.42;;;;;;;;;;7330623;19;163487;-16
2022/09/02 01:23:55;;;;;;;6.78;2.28;;;;;;;;;;7332534;19;163828;-16
2022/09/02 01:26:26;;;;;;;4.05;2.40;;;;;;;;;;7331695;19;154331;-16
2022/09/02 01:28:57;;;;;;;4.03;2.30;;;;;;;;;;7331520;19;153605;-14
2022/09/02 01:31:29;;;;;;;5.10;2.65;;;;;;;;;;7333140;19;161990;-14
2022/09/02 01:34:00;;;;;;;4.47;2.58;;;;;;;;;;7332126;19;162327;-13
2022/09/02 01:36:34;;;;;;;4.05;2.20;;;;;;;;;;7332336;19;154033;-14
2022/09/02 01:39:08;;;;;;;5.07;2.53;;;;;;;;;;7332087;19;153636;-13
2022/09/02 01:41:40;;;;;;;2.95;2.10;;;;;;;;;;7329265;19;161920;-13
2022/09/02 01:44:14;;;;;;;5.70;2.70;;;;;;;;;;7331768;19;162598;-14
2022/09/02 01:46:46;;;;;;;5.20;2.63;;;;;;;;;;7330925;19;154071;-13
2022/09/02 01:49:18;;;;;;;4.88;2.15;;;;;;;;;;7330703;19;153577;-13
2022/09/02 01:51:50;;;;;;;6.37;2.30;;;;;;;;;;7330139;19;161755;-25
2022/09/02 01:54:27;;;;;;;6.57;2.75;;;;;;;;;;7330170;19;162494;-13
2022/09/02 01:56:59;;;;;;;4.65;2.35;;;;;;;;;;7329234;19;154054;-15
2022/09/02 01:59:30;;;;;;;4.28;2.72;;;;;;;;;;7331944;19;153528;-16
2022/09/02 02:02:01;;;;;;;5.13;2.45;;;;;;;;;;7327684;19;161885;-15
2022/09/02 02:04:36;;;;;;;3.45;2.53;;;;;;;;;;7330080;19;162341;-15
2022/09/02 02:07:09;;;;;;;4.10;2.10;;;;;;;;;;7331779;19;154233;-15
2022/09/02 02:09:43;;;;;;;4.93;2.30;;;;;;;;;;7331554;19;153557;-15
2022/09/02 02:12:17;;;;;;;5.53;2.60;;;;;;;;;;7330098;19;162110;-16
2022/09/02 02:14:48;;;;;;;4.38;2.50;;;;;;;;;;7329015;19;162605;-15
2022/09/02 02:17:19;;;;;;;3.10;2.40;;;;;;;;;;7331499;19;154055;-16
2022/09/02 02:19:50;;;;;;;3.72;2.28;;;;;;;;;;7330270;19;153443;-15
2022/09/02 02:22:22;;;;;;;5.23;2.53;;;;;;;;;;7328426;19;162515;-15
2022/09/02 02:24:56;;;;;;;3.88;2.05;;;;;;;;;;7330880;19;162549;-16
2022/09/02 02:27:27;;;;;;;3.05;2.10;;;;;;;;;;7329889;19;154075;-14
2022/09/02 02:29:58;;;;;;;2.75;2.30;;;;;;;;;;7329504;19;153996;-14
2022/09/02 02:32:31;;;;;;;3.92;2.20;;;;;;;;;;7329333;19;161884;-16
2022/09/02 02:35:04;;;;;;;2.47;1.98;;;;;;;;;;7329232;19;162604;-14
2022/09/02 02:37:36;;;;;;;;;;;;;;;;;;7330382;19;154068;-14
2022/09/02 02:40:11;;;;;;;4.15;2.20;;;;;;;;;;7329536;19;153376;-14
2022/09/02 02:42:43;;;;;;;5.43;2.53;;;;;;;;;;7328948;19;161878;-14
2022/09/02 02:45:14;;;;;;;3.13;2.15;;;;;;;;;;7330055;19;162296;-14
2022/09/02 02:47:47;;;;;;;3.50;2.30;;;;;;;;;;7329347;19;154187;-14
2022/09/02 02:50:22;;;;;;;4.75;2.67;;;;;;;;;;7328873;19;153947;-14
2022/09/02 02:52:55;;;;;;;4.70;2.20;;;;;;;;;;7328797;19;161939;-15
2022/09/02 02:55:30;;;;;;;5.15;2.60;;;;;;;;;;7328696;19;162621;-14
2022/09/02 02:58:02;;;;;;;3.45;2.03;;;;;;;;;;7331811;19;154096;-15
2022/09/02 03:00:35;;;;;;;2.63;2.10;;;;;;;;;;7329721;19;153607;-14
2022/09/02 03:03:10;;;;;;;4.57;2.42;;;;;;;;;;7328247;19;161811;-14
2022/09/02 03:05:43;;;;;;;3.50;2.40;;;;;;;;;;7329528;19;162603;-14
2022/09/02 03:08:15;;;;;;;3.28;2.30;;;;;;;;;;7328549;19;154496;-14
2022/09/02 03:10:52;;;;;;;3.88;2.30;;;;;;;;;;7328495;19;154142;-14
2022/09/02 03:13:27;;;;;;;2.38;1.92;;;;;;;;;;7328080;19;162086;-14
2022/09/02 03:15:58;;;;;;;2.83;2.20;;;;;;;;;;7329222;19;162516;-14
2022/09/02 03:18:29;;;;;;;2.28;1.95;;;;;;;;;;7329435;19;154275;-15
2022/09/02 03:21:01;;;;;;;2.50;2.03;;;;;;;;;;7327509;19;153582;-15
2022/09/02 03:23:33;;;;;;;3.55;2.20;;;;;;;;;;7327652;19;161992;-14
2022/09/02 03:26:11;;;;;;;2.90;2.22;;;;;;;;;;7327712;19;163019;-15
2022/09/02 03:28:42;;;;;;;3.83;2.03;;;;;;;;;;7327854;19;154198;-14
2022/09/02 03:31:17;;;;;;;3.92;2.63;;;;;;;;;;7328022;19;153702;-14
2022/09/02 03:33:49;;;;;;;3.95;1.88;;;;;;;;;;7327428;19;161986;-15
2022/09/02 03:36:24;;;;;;;2.80;1.85;;;;;;;;;;7329975;19;162422;-14
2022/09/02 03:38:58;;;;;;;2.10;1.92;;;;;;;;;;7327677;19;154037;-14
2022/09/02 03:41:34;;;;;;;2.40;2.20;;;;;;;;;;7326856;19;153561;-14
2022/09/02 03:44:06;;;;;;;3.55;2.10;;;;;;;;;;7328325;19;161817;-14
2022/09/02 03:46:37;;;;;;;4.97;2.20;;;;;;;;;;7327175;19;162164;-14
2022/09/02 03:49:09;;;;;;;3.47;2.10;;;;;;;;;;7327471;19;154033;-14
2022/09/02 03:51:43;;;;;;;2.75;1.77;;;;;;;;;;7327331;19;153659;-15
2022/09/02 03:54:15;;;;;;;3.47;2.15;;;;;;;;;;7326788;19;161862;-15
2022/09/02 03:56:49;;;;;;;3.25;2.20;;;;;;;;;;7325371;19;162509;-15
2022/09/02 03:59:21;;;;;;;4.28;2.22;;;;;;;;;;7326882;19;154190;-15
2022/09/02 04:01:54;;;;;;;3.28;2.15;;;;;;;;;;7327342;19;153823;-14
2022/09/02 04:04:25;;;;;;;2.30;1.70;;;;;;;;;;7326710;19;162196;-14
2022/09/02 04:06:57;;;;;;;3.25;1.83;;;;;;;;;;7327641;19;162329;-15
2022/09/02 04:09:29;;;;;;;2.80;1.90;;;;;;;;;;7326783;19;154231;-14
2022/09/02 04:12:05;;;;;;;2.47;2.00;;;;;;;;;;7326712;19;153264;-14
2022/09/02 04:14:37;;;;;;;2.25;1.92;;;;;;;;;;7326051;19;162643;-14
2022/09/02 04:17:08;;;;;;;2.70;2.15;;;;;;;;;;7326247;19;162549;-15
2022/09/02 04:19:40;;;;;;;3.33;2.00;;;;;;;;;;7327494;19;154168;-14
2022/09/02 04:22:11;;;;;;;3.38;2.00;;;;;;;;;;7325510;19;153653;-14
2022/09/02 04:24:42;;;;;;;2.80;1.80;;;;;;;;;;7326963;19;161980;-15
2022/09/02 04:27:16;;;;;;;3.22;2.10;;;;;;;;;;7327127;19;162482;-14
2022/09/02 04:29:48;;;;;;;5.88;2.00;;;;;;;;;;7326235;19;154091;-14
2022/09/02 04:32:20;;;;;;;2.58;2.03;;;;;;;;;;7326372;19;153582;-14
2022/09/02 04:34:52;;;;;;;4.15;1.83;;;;;;;;;;7325653;19;161922;-14
2022/09/02 04:37:24;;;;;;;2.33;2.10;;;;;;;;;;7326721;19;162361;-14
2022/09/02 04:39:56;;;;;;;3.88;2.17;;;;;;;;;;7331930;19;154166;-14
2022/09/02 04:42:31;;;;;;;2.00;1.80;;;;;;;;;;7332023;19;153568;-15
2022/09/02 04:45:03;;;;;;;3.17;2.00;;;;;;;;;;7332202;19;161965;-14
2022/09/02 04:47:34;;;;;;;3.10;2.23;;;;;;;;;;7332604;19;162737;-15
2022/09/02 04:50:08;;;;;;;3.03;1.97;;;;;;;;;;7332547;19;154117;-15
2022/09/02 04:52:40;;;;;;;3.33;1.98;;;;;;;;;;7332620;19;153535;-14
2022/09/02 04:55:12;;;;;;;3.22;1.92;;;;;;;;;;7331947;19;162122;-14
2022/09/02 04:57:46;;;;;;;4.20;1.88;;;;;;;;;;7329629;19;162460;-15
2022/09/02 05:00:18;;;;;;;2.88;2.17;;;;;;;;;;7332169;19;154481;-15
2022/09/02 05:02:50;;;;;;;2.03;1.70;;;;;;;;;;7331328;19;153727;-15
2022/09/02 05:05:23;;;;;;;2.03;1.77;;;;;;;;;;7331911;19;161803;-15
2022/09/02 05:07:55;;;;;;;4.43;1.87;;;;;;;;;;7331742;19;162443;-15
2022/09/02 05:10:27;;;;;;;3.83;2.10;;;;;;;;;;7331927;19;154064;-15
2022/09/02 05:13:02;;;;;;;2.22;1.83;;;;;;;;;;7331705;19;153803;-15
2022/09/02 05:15:35;;;;;;;3.90;2.50;;;;;;;;;;7331388;19;161880;-15
2022/09/02 05:18:07;;;;;;;4.78;2.08;;;;;;;;;;7331335;19;162542;-15
2022/09/02 05:20:42;;;;;;;3.55;1.83;;;;;;;;;;7333055;19;153817;-15
2022/09/02 05:23:15;;;;;;;3.05;1.95;;;;;;;;;;7330384;19;153680;-15
2022/09/02 05:25:47;;;;;;;3.47;1.90;;;;;;;;;;7331211;19;162091;-15
2022/09/02 05:28:21;;;;;;;;;;;;;;;;;;7331775;19;162571;-16
2022/09/02 05:30:53;;;;;;;5.72;2.22;;;;;;;;;;7331368;19;154318;-15
2022/09/02 05:33:24;;;;;;;3.88;2.25;;;;;;;;;;7331423;19;153665;-15
2022/09/02 05:35:55;;;;;;;5.57;2.40;;;;;;;;;;7331639;19;162086;-15
2022/09/02 05:38:27;;;;;;;3.17;1.85;;;;;;;;;;7330839;19;162630;-15
2022/09/02 05:40:58;;;;;;;3.33;2.17;;;;;;;;;;7332451;19;154092;-15
2022/09/02 05:43:32;;;;;;;3.35;2.47;;;;;;;;;;7330901;19;153521;-15
2022/09/02 05:46:06;;;;;;;9.07;3.70;;;;;;;;;;7332049;19;162011;-14
2022/09/02 05:51:25;;;;;;;8.40;3.10;;;;;;;;;;7331851;19;153957;-15
2022/09/02 05:53:59;;;;;;;6.25;3.13;;;;;;;;;;7334354;19;153510;-15
2022/09/02 05:56:30;;;;;;;7.10;3.20;;;;;;;;;;7332496;19;161960;-15
2022/09/02 05:59:06;;;;;;;4.10;2.63;;;;;;;;;;7332453;19;162532;-14
2022/09/02 06:01:40;;;;;;;5.50;3.22;;;;;;;;;;7330002;19;154054;-15
2022/09/02 06:04:13;;;;;;;7.93;3.17;;;;;;;;;;7327143;19;153591;-14
2022/09/02 06:06:49;;;;;;;4.90;2.90;;;;;;;;;;7329947;19;133715;-15
2022/09/02 06:09:24;;;;;;;5.38;2.95;;;;;;;;;;7329310;19;162577;-15
2022/09/02 06:11:57;;;;;;;4.72;3.10;;;;;;;;;;7330204;19;154118;-14
2022/09/02 06:14:36;;;;;;;8.18;3.72;;;;;;;;;;7330221;19;153799;-15
2022/09/02 06:17:08;;;;;;;7.50;3.15;;;;;;;;;;7329785;19;161882;-15
2022/09/02 06:19:49;;;;;;;7.50;2.97;;;;;;;;;;7329615;19;162909;-15
2022/09/02 06:22:20;;;;;;;8.52;3.33;;;;;;;;;;7330022;19;154083;-14
2022/09/02 06:24:53;;;;;;;;;;;;;;;;;;7328248;19;153771;-16
2022/09/02 06:27:28;;;;;;;7.70;3.47;;;;;;;;;;7329689;19;161860;-15
2022/09/02 06:30:01;;;;;;;7.57;3.17;;;;;;;;;;7329340;19;162512;-15
2022/09/02 06:32:33;;;;;;;6.28;3.08;;;;;;;;;;7329973;19;154115;-15
2022/09/02 06:35:09;;;;;;;8.55;3.22;;;;;;;;;;7330950;19;154138;-15
2022/09/02 06:37:41;;;;;;;8.77;3.40;;;;;;;;;;7329316;19;162011;-16
2022/09/02 06:40:13;;;;;;;7.27;3.00;;;;;;;;;;7329077;19;162822;-15
2022/09/02 06:42:46;;;;;;;7.55;2.97;;;;;;;;;;7329491;19;154110;-15
2022/09/02 06:45:32;;;;;;;6.45;3.55;;;;;;;;;;7326434;19;153735;-15
2022/09/02 06:48:06;;;;;;;8.90;3.42;;;;;;;;;;7329062;19;161681;-15
2022/09/02 06:50:42;;;;;;;7.82;3.95;;;;;;;;;;7328663;19;162403;-14
2022/09/02 06:53:14;;;;;;;5.88;3.17;;;;;;;;;;7334679;19;154213;-14
2022/09/02 06:55:52;;;;;;;4.03;2.95;;;;;;;;;;7328645;19;153613;-15
2022/09/02 06:58:24;;;;;;;6.97;3.35;;;;;;;;;;7328852;19;161991;-14
2022/09/02 07:00:58;;;;;;;5.20;3.92;;;;;;;;;;7328551;19;162751;-15
2022/09/02 07:06:16;;;;;;;7.15;3.65;;;;;;;;;;7328871;19;153519;-14
2022/09/02 07:08:50;;;;;;;7.50;3.55;;;;;;;;;;7328424;19;162025;-15
2022/09/02 07:11:24;;;;;;;8.32;3.40;;;;;;;;;;7329469;19;162463;-15
2022/09/02 07:13:59;;;;;;;6.45;3.50;;;;;;;;;;7328807;19;154055;-15
2022/09/02 07:16:36;;;;;;;4.53;3.38;;;;;;;;;;7328719;19;153636;-15
2022/09/02 07:19:10;;;;;;;6.72;3.70;;;;;;;;;;7328196;19;161980;-15
2022/09/02 07:21:44;;;;;;;7.20;2.88;;;;;;;;;;7328127;19;162511;-15
2022/09/02 07:24:16;;;;;;;5.32;2.95;;;;;;;;;;7328654;19;154013;-15
2022/09/02 07:26:48;;;;;;;5.68;2.97;;;;;;;;;;7328309;19;153543;-15
2022/09/02 07:29:22;;;;;;;8.20;3.15;;;;;;;;;;7327602;19;162122;-15
2022/09/02 07:31:57;;;;;;;7.77;2.90;;;;;;;;;;7327586;19;162405;-15
2022/09/02 07:34:28;;;;;;;6.63;3.92;;;;;;;;;;7328058;19;154126;-15
2022/09/02 07:37:00;;;;;;;5.10;3.55;;;;;;;;;;7327848;19;153569;-15
2022/09/02 07:39:33;;;;;;;6.60;3.47;;;;;;;;;;7333208;19;162101;-25
2022/09/02 07:42:04;;;;;;;4.18;3.38;;;;;;;;;;7328601;19;162844;-15
2022/09/02 07:44:36;;;;;;;6.55;3.22;;;;;;;;;;7327821;19;154132;-16
2022/09/02 07:47:12;;;;;;;3.80;3.40;;;;;;;;;;7327528;19;153635;-15
2022/09/02 07:49:49;;;;;;;7.13;3.58;;;;;;;;;;7328540;19;162071;-15
2022/09/02 07:52:41;;;;;;;5.28;3.50;;;;;;;;;;7326767;19;162411;-15
2022/09/02 07:55:17;;;;;;;3.92;3.08;;;;;;;;;;7327346;19;154144;-15
2022/09/02 07:57:50;;;;;;;3.78;3.05;;;;;;;;;;7325943;19;153544;-15
2022/09/02 08:00:26;;;;;;;5.18;3.13;;;;;;;;;;7326904;19;161862;-16
2022/09/02 08:03:08;;;;;;;5.05;3.20;;;;;;;;;;7327997;19;162697;-15
2022/09/02 08:05:48;;;;;;;7.90;3.35;;;;;;;;;;7325209;19;154274;-15
2022/09/02 08:08:21;;;;;;;5.97;3.78;;;;;;;;;;7327937;19;153566;-15
2022/09/02 08:10:53;;;;;;;6.13;3.63;;;;;;;;;;7328091;19;162115;-15
2022/09/02 08:13:26;;;;;;;7.68;4.20;;;;;;;;;;7328183;19;162616;-16
2022/09/02 08:16:01;;;;;;;6.88;4.55;;;;;;;;;;7333658;19;154319;-15
2022/09/02 08:18:35;;;;;;;7.30;4.13;;;;;;;;;;7334718;19;153835;-15
2022/09/02 08:21:07;;;;;;;6.75;4.28;;;;;;;;;;7334392;19;161925;-15
2022/09/02 08:23:41;;;;;;;7.63;3.90;;;;;;;;;;7334232;19;162528;-15
2022/09/02 08:26:15;;;;;;;6.00;4.30;;;;;;;;;;7332485;19;154030;-15
2022/09/02 08:28:46;;;;;;;8.40;4.75;;;;;;;;;;7334303;19;154210;-15
2022/09/02 08:31:17;;;;;;;9.25;4.13;;;;;;;;;;7333965;19;161782;-15
2022/09/02 08:33:51;;;;;;;8.55;4.38;;;;;;;;;;7333681;19;162504;-15
2022/09/02 08:36:22;;;;;;;6.35;3.75;;;;;;;;;;7332843;19;154122;-15
2022/09/02 08:38:54;;;;;;;8.68;4.18;;;;;;;;;;7334221;19;153756;-14
2022/09/02 08:41:29;;;;;;;5.43;4.03;;;;;;;;;;7333751;19;161924;-13
2022/09/02 08:44:03;;;;;;;4.75;3.75;;;;;;;;;;7333389;19;162355;-14
2022/09/02 08:46:36;;;;;;;8.70;3.72;;;;;;;;;;7333827;19;154316;-14
2022/09/02 08:49:18;;;;;;;5.72;4.20;;;;;;;;;;7334230;19;153482;-15
2022/09/02 08:51:55;;;;;;;6.93;3.70;;;;;;;;;;7333602;19;162129;-16
2022/09/02 08:54:32;;;;;;;5.50;3.42;;;;;;;;;;7333580;19;162465;-16
2022/09/02 08:57:04;;;;;;;5.95;3.53;;;;;;;;;;7332211;19;154211;-16
2022/09/02 08:59:35;;;;;;;6.35;3.28;;;;;;;;;;7333539;19;153519;-15
2022/09/02 09:02:19;;;;;;;5.65;3.47;;;;;;;;;;7333279;19;161799;-16
2022/09/02 09:05:12;;;;;;;5.70;4.32;;;;;;;;;;7333037;19;162362;-16
2022/09/02 09:07:56;;;;;;;6.10;3.80;;;;;;;;;;7333683;19;154142;-16
2022/09/02 09:10:34;;;;;;;6.75;3.95;;;;;;;;;;7333384;19;153544;-16
2022/09/02 09:13:20;;;;;;;8.10;3.70;;;;;;;;;;7331791;19;161856;-16
2022/09/02 09:15:57;;;;;;;6.78;3.80;;;;;;;;;;7332759;19;162759;-13
2022/09/02 09:18:39;;;;;;;6.40;4.25;;;;;;;;;;7332933;19;154177;-13
2022/09/02 09:21:14;;;;;;;6.85;4.00;;;;;;;;;;7332793;19;153556;-14
2022/09/02 09:23:48;;;;;;;6.55;3.67;;;;;;;;;;7332410;19;162048;-15
2022/09/02 09:26:23;;;;;;;6.07;3.53;;;;;;;;;;7328490;19;162900;-16
2022/09/02 09:28:58;;;;;;;7.78;3.80;;;;;;;;;;7332618;19;154048;-14
2022/09/02 09:31:34;;;;;;;4.82;3.05;;;;;;;;;;7332593;19;153693;-14
2022/09/02 09:34:07;;;;;;;6.15;3.70;;;;;;;;;;7332061;19;162039;-14
2022/09/02 09:36:54;;;;;;;5.18;3.05;;;;;;;;;;7331737;19;162590;-14
2022/09/02 09:39:33;;;;;;;5.03;2.58;;;;;;;;;;7334779;19;154118;-15
2022/09/02 09:42:13;;;;;;;5.35;2.60;;;;;;;;;;7332199;19;154060;-14
2022/09/02 09:44:46;;;;;;;5.20;3.08;;;;;;;;;;7331657;19;161797;-20
2022/09/02 09:47:21;;;;;;;4.78;2.50;;;;;;;;;;7329323;19;162388;-14
2022/09/02 09:49:54;;;;;;;3.72;2.40;;;;;;;;;;7330818;19;154141;-14
2022/09/02 09:52:29;;;;;;;;;;;;;;;;;;7332504;19;153513;-15
2022/09/02 09:55:17;;;;;;;6.40;4.22;;;;;;;;;;7331533;19;162106;-14
2022/09/02 09:57:52;;;;;;;6.40;4.32;;;;;;;;;;7328705;19;162512;-14
2022/09/02 10:00:30;;;;;;;9.05;4.18;;;;;;;;;;7331434;19;153995;-15
2022/09/02 10:03:04;;;;;;;8.40;4.70;;;;;;;;;;7331756;19;153547;-15
2022/09/02 10:05:38;;;;;;;8.18;4.93;;;;;;;;;;7330831;19;161879;-14
2022/09/02 10:08:22;;;;;;;6.72;4.53;;;;;;;;;;7331072;19;162561;-15
2022/09/02 10:11:01;;;;;;;8.98;4.13;;;;;;;;;;7331265;19;154112;-15
2022/09/02 10:13:37;;;;;;;7.95;3.75;;;;;;;;;;7331161;19;153536;-14
2022/09/02 10:16:43;;;;;;;4.70;3.22;;;;;;;;;;7330950;19;162219;-14
2022/09/02 10:19:22;;;;;;;6.43;3.28;;;;;;;;;;7330375;19;162721;-15
2022/09/02 10:22:19;;;;;;;4.60;3.00;;;;;;;;;;7331210;19;154103;-14
2022/09/02 10:25:09;;;;;;;7.45;3.33;;;;;;;;;;7329765;19;153916;-14
2022/09/02 10:27:54;;;;;;;8.20;3.42;;;;;;;;;;7328171;19;161732;-14
2022/09/02 10:30:27;;;;;;;7.03;3.10;;;;;;;;;;7330466;19;162544;-14
2022/09/02 10:33:21;;;;;;;5.45;3.17;;;;;;;;;;7330767;19;154308;-14
2022/09/02 10:36:01;;;;;;;5.60;3.15;;;;;;;;;;7329750;19;153455;-14
2022/09/02 10:38:41;;;;;;;6.30;2.90;;;;;;;;;;7330317;19;161922;-15
2022/09/02 10:41:30;;;;;;;3.92;3.17;;;;;;;;;;7330135;19;162668;-14
2022/09/02 10:44:20;;;;;;;3.28;2.97;;;;;;;;;;7330414;19;154285;-14
2022/09/02 10:47:00;;;;;;;11.52;3.65;;;;;;;;;;7328483;19;153552;-14
2022/09/02 10:49:53;;;;;;;8.10;3.13;;;;;;;;;;7333848;19;161759;-14
2022/09/02 10:53:20;;;;;;;4.68;2.70;;;;;;;;;;7328523;19;162736;-16
2022/09/02 10:55:59;;;;;;;6.72;3.08;;;;;;;;;;7326312;19;154137;-12
2022/09/02 10:58:42;;;;;;;4.60;2.55;;;;;;;;;;7329124;19;153365;-13
2022/09/02 11:01:15;;;;;;;;;;;;;;;;;;7328526;19;162141;-13
2022/09/02 11:04:02;;;;;;;5.10;2.85;;;;;;;;;;7329469;19;162799;-13
2022/09/02 11:06:39;;;;;;;7.45;3.20;;;;;;;;;;7328945;19;154314;-13
2022/09/02 11:09:35;;;;;;;6.53;3.40;;;;;;;;;;7329485;19;153466;-13
2022/09/02 11:12:11;;;;;;;6.05;3.08;;;;;;;;;;7329005;19;161809;-13
2022/09/02 11:14:55;;;;;;;9.45;2.95;;;;;;;;;;7329114;19;162421;-13
2022/09/02 11:17:34;;;;;;;8.63;3.13;;;;;;;;;;7329435;19;154020;-13
2022/09/02 11:20:12;;;;;;;7.72;3.47;;;;;;;;;;7329446;19;153508;-13
2022/09/02 11:22:55;;;;;;;5.57;2.95;;;;;;;;;;7327991;19;161590;-13
2022/09/02 11:25:29;;;;;;;6.68;3.03;;;;;;;;;;7328707;19;162367;-13
2022/09/02 11:28:07;;;;;;;9.48;4.28;;;;;;;;;;7327201;19;154164;-14
2022/09/02 11:30:47;;;;;;;8.30;4.60;;;;;;;;;;7329016;19;153709;-14
2022/09/02 11:33:23;;;;;;;11.82;6.32;;;;;;;;;;7328470;19;161735;-14
2022/09/02 11:35:54;;;;;;;14.48;5.40;;;;;;;;;;7328560;19;162388;-13
2022/09/02 11:38:35;;;;;;;15.40;6.43;;;;;;;;;;7328810;19;154201;-14
2022/09/02 11:41:35;;;;;;;10.63;5.53;;;;;;;;;;7328411;19;153580;-14
2022/09/02 11:44:46;;;;;;;12.65;5.15;;;;;;;;;;7327272;19;162044;-14
2022/09/02 11:47:41;;;;;;;11.23;5.05;;;;;;;;;;7329809;19;162384;-14
2022/09/02 11:50:30;;;;;;;11.27;5.20;;;;;;;;;;7335119;19;154165;-14
2022/09/02 11:53:14;;;;;;;7.90;4.38;;;;;;;;;;7335067;19;153677;-14
2022/09/02 11:55:55;;;;;;;8.63;4.60;;;;;;;;;;7333974;19;162138;-14
2022/09/02 11:58:34;;;;;;;7.15;4.43;;;;;;;;;;7334620;19;162219;-14
2022/09/02 12:01:22;;;;;;;6.60;4.40;;;;;;;;;;7334918;19;154177;-14
2022/09/02 12:04:02;;;;;;;6.80;4.30;;;;;;;;;;7334259;19;153728;-13
2022/09/02 12:07:32;;;;;;;6.38;4.22;;;;;;;;;;7333662;19;161889;-14
2022/09/02 12:10:04;;;;;;;9.38;4.15;;;;;;;;;;7333646;19;162547;-14
2022/09/02 12:13:06;;;;;;;8.57;3.93;;;;;;;;;;7333410;19;154088;-15
2022/09/02 12:15:39;;;;;;;5.72;3.60;;;;;;;;;;7334498;19;153493;-14
2022/09/02 12:18:16;;;;;;;9.77;3.90;;;;;;;;;;7333915;19;162189;-14
2022/09/02 12:21:14;;;;;;;5.95;3.40;;;;;;;;;;7333851;19;162296;-14
2022/09/02 12:24:21;;;;;;;6.82;3.38;;;;;;;;;;7333997;19;154242;-14
2022/09/02 12:27:10;;;;;;;5.75;3.60;;;;;;;;;;7334096;19;153656;-14
2022/09/02 12:29:44;;;;;;;5.35;3.33;;;;;;;;;;7333391;19;161954;-13
2022/09/02 12:33:11;;;;;;;7.13;3.38;;;;;;;;;;7333358;19;162548;-16
2022/09/02 12:35:57;;;;;;;5.63;2.95;;;;;;;;;;7333572;19;154035;-14
2022/09/02 12:38:35;;;;;;;7.88;3.22;;;;;;;;;;7333770;19;153525;-13
2022/09/02 12:41:25;;;;;;;5.78;2.83;;;;;;;;;;7333508;19;161761;-15
2022/09/02 12:44:10;;;;;;;7.50;2.83;;;;;;;;;;7333512;19;162579;-14
2022/09/02 12:46:57;;;;;;;7.50;3.78;;;;;;;;;;7336117;19;154046;-14
2022/09/02 12:49:51;;;;;;;5.10;3.00;;;;;;;;;;7331233;19;155623;-15
2022/09/02 12:52:41;;;;;;;6.63;3.28;;;;;;;;;;7332734;19;162052;-15
2022/09/02 12:55:20;;;;;;;8.38;4.90;;;;;;;;;;7333114;19;162455;-15
2022/09/02 12:57:53;;;;;;;10.60;4.63;;;;;;;;;;7331303;19;154156;-15
2022/09/02 13:00:29;;;;;;;;;;;;;;;;;;7334001;19;153766;-15
2022/09/02 13:03:15;;;;;;;10.02;5.15;;;;;;;;;;7333145;19;162074;-14
2022/09/02 13:05:57;;;;;;;9.43;4.07;;;;;;;;;;7332966;19;162346;-15
2022/09/02 13:08:53;;;;;;;6.38;3.90;;;;;;;;;;7332243;19;154024;-15
2022/09/02 13:11:59;;;;;;;9.10;3.90;;;;;;;;;;7333250;19;153501;-15
2022/09/02 13:14:55;;;;;;;6.32;3.30;;;;;;;;;;7332224;19;161903;-15
2022/09/02 13:17:45;;;;;;;4.47;3.28;;;;;;;;;;7332583;19;162403;-15
2022/09/02 13:20:45;;;;;;;8.25;3.70;;;;;;;;;;7332969;19;154048;-15
2022/09/02 13:23:57;;;;;;;10.73;3.45;;;;;;;;;;7332690;19;153619;-15
2022/09/02 13:26:46;;;;;;;6.50;3.55;;;;;;;;;;7331322;19;161934;-15
2022/09/02 13:29:59;;;;;;;8.05;3.42;;;;;;;;;;7330564;19;162459;-15
2022/09/02 13:32:33;;;;;;;6.45;4.30;;;;;;;;;;7332631;19;154010;-15
2022/09/02 13:35:07;;;;;;;7.32;4.97;;;;;;;;;;7331385;19;154000;-15
2022/09/02 13:37:42;;;;;;;8.77;6.07;;;;;;;;;;7332055;19;161805;-15
2022/09/02 13:40:20;;;;;;;9.63;6.65;;;;;;;;;;7330728;19;162459;-16
2022/09/02 13:42:52;;;;;;;9.43;6.15;;;;;;;;;;7332450;19;154031;-15
2022/09/02 13:45:28;;;;;;;12.32;5.50;;;;;;;;;;7332278;19;153575;-15
2022/09/02 13:48:04;;;;;;;9.13;5.60;;;;;;;;;;7327633;19;161719;-16
2022/09/02 13:50:36;;;;;;;11.40;5.20;;;;;;;;;;7334709;19;162469;-15
2022/09/02 13:53:09;;;;;;;12.07;4.90;;;;;;;;;;7333678;19;154096;-15
2022/09/02 13:56:01;;;;;;;;;;;;;;;;;;7333949;19;153627;-15
2022/09/02 13:58:37;;;;;;;10.68;5.20;;;;;;;;;;7332241;19;161994;-16
2022/09/02 14:01:28;;;;;;;10.00;5.00;;;;;;;;;;7333361;19;162339;-16
2022/09/02 14:04:01;;;;;;;29.20;10.57;;;;;;;;;;7336528;19;154168;-15
2022/09/02 14:06:42;;;;;;;27.70;11.10;;;;;;;;;;7332301;19;153627;-15
2022/09/02 14:09:21;;;;;;;20.40;8.05;;;;;;;;;;7332044;19;161771;-15
2022/09/02 14:11:54;;;;;;;12.45;6.15;;;;;;;;;;7333283;19;162689;-16
2022/09/02 14:14:26;;;;;;;13.27;7.00;;;;;;;;;;7335587;19;154275;-15
2022/09/02 14:17:25;;;;;;;13.30;5.75;;;;;;;;;;7332236;19;153609;-16
2022/09/02 14:20:19;;;;;;;17.23;6.18;;;;;;;;;;7332899;19;162060;-15
2022/09/02 14:22:57;;;;;;;18.33;7.53;;;;;;;;;;7331800;19;162260;-15
2022/09/02 14:25:31;;;;;;;17.40;6.85;;;;;;;;;;7333436;19;154319;-15
2022/09/02 14:28:04;;;;;;;21.92;6.63;;;;;;;;;;7334356;19;153747;-15
2022/09/02 14:30:36;;;;;;;;;;;;;;;;;;7328834;19;161803;-15
2022/09/02 14:33:28;;;;;;;15.90;5.72;;;;;;;;;;7332973;19;162287;-15
2022/09/02 14:36:04;;;;;;;13.10;6.13;;;;;;;;;;7334199;19;154006;-15
2022/09/02 14:38:38;;;;;;;16.90;6.50;;;;;;;;;;7331249;19;153535;-15
2022/09/02 14:41:13;;;;;;;14.43;6.90;;;;;;;;;;7331981;19;162378;-17
2022/09/02 14:43:48;;;;;;;15.15;6.07;;;;;;;;;;7332689;19;162546;-15
2022/09/02 14:46:29;;;;;;;17.33;6.55;;;;;;;;;;7334233;19;153556;-15
2022/09/02 14:49:07;;;;;;;14.43;6.55;;;;;;;;;;7332728;19;153641;-15
2022/09/02 14:51:41;;;;;;;21.13;6.50;;;;;;;;;;7331994;19;162001;-15
2022/09/02 14:54:16;;;;;;;16.50;5.70;;;;;;;;;;7333695;19;162572;-15
2022/09/02 14:56:53;;;;;;;13.93;5.95;;;;;;;;;;7329588;19;154038;-15
2022/09/02 14:59:24;;;;;;;18.83;6.53;;;;;;;;;;7332296;19;153564;-15
2022/09/02 15:01:57;;;;;;;15.30;6.13;;;;;;;;;;7332753;19;162178;-15
2022/09/02 15:04:34;;;;;;;26.40;10.73;;;;;;;;;;7333574;19;162664;-15
2022/09/02 15:07:07;;;;;;;28.95;10.38;;;;;;;;;;7331568;19;154312;-15
2022/09/02 15:09:43;;;;;;;21.73;9.50;;;;;;;;;;7331288;19;153826;-15
2022/09/02 15:12:15;;;;;;;;;;;;;;;;;;7333666;19;161993;-15
2022/09/02 15:14:46;;;;;;;22.10;8.85;;;;;;;;;;7330362;19;162391;-15
2022/09/02 15:17:18;;;;;;;23.40;9.52;;;;;;;;;;7331255;19;154115;-15
2022/09/02 15:19:52;;;;;;;21.67;9.30;;;;;;;;;;7332443;19;153682;-15
2022/09/02 15:22:23;;;;;;;18.23;8.20;;;;;;;;;;7330151;19;161675;-15
2022/09/02 15:24:55;;;;;;;16.05;7.28;;;;;;;;;;7329044;19;162531;-15
2022/09/02 15:27:27;;;;;;;26.48;7.90;;;;;;;;;;7331600;19;153916;-15
2022/09/02 15:29:58;;;;;;;16.90;8.50;;;;;;;;;;7331283;19;153841;-15
2022/09/02 15:32:29;;;;;;;14.52;7.32;;;;;;;;;;7332581;19;161813;-15
2022/09/02 15:35:03;;;;;;;21.38;6.93;;;;;;;;;;7330290;19;162378;-15